Time;durP1;ratioP1;P1;durP2;ratioP2;P2;SDS_P1;SDS_P2;PMS_P1;PMS_P2;Temp;Humidity;BMP_temperature;BMP_pressure;BME280_temperature;BME280_humidity;BME280_pressure;Samples;Min_cycle;Max_cycle;Signal;HPM_P1;HPM_P2
2021/04/11 00:00:53;;;;;;;31.40;29.17;;;;;;;;;;5073935;28;20795;-73
2021/04/11 00:03:22;;;;;;;29.57;27.47;;;;;;;;;;5075066;28;20792;-75
2021/04/11 00:05:50;;;;;;;27.63;25.80;;;;;;;;;;5075031;28;20404;-73
2021/04/11 00:08:18;;;;;;;29.63;27.57;;;;;;;;;;5075012;28;20450;-73
2021/04/11 00:10:45;;;;;;;29.60;27.43;;;;;;;;;;5074949;28;20479;-73
2021/04/11 00:13:13;;;;;;;27.87;26.07;;;;;;;;;;5074894;28;20409;-73
2021/04/11 00:15:40;;;;;;;30.27;28.00;;;;;;;;;;5074396;28;20793;-73
2021/04/11 00:18:07;;;;;;;28.77;26.67;;;;;;;;;;5073561;28;20493;-72
2021/04/11 00:20:34;;;;;;;28.03;25.93;;;;;;;;;;5075348;28;20792;-73
2021/04/11 00:23:02;;;;;;;27.00;25.10;;;;;;;;;;5074676;28;20445;-73
2021/04/11 00:25:32;;;;;;;30.17;28.07;;;;;;;;;;5074337;28;20420;-73
2021/04/11 00:27:58;;;;;;;29.50;26.87;;;;;;;;;;5074469;28;20448;-73
2021/04/11 00:30:26;;;;;;;29.07;26.97;;;;;;;;;;5074620;28;20429;-73
2021/04/11 00:32:54;;;;;;;29.10;26.90;;;;;;;;;;5073879;28;20465;-73
2021/04/11 00:35:21;;;;;;;28.57;26.63;;;;;;;;;;5074371;28;20462;-73
2021/04/11 00:37:48;;;;;;;28.27;26.07;;;;;;;;;;5074403;28;20463;-73
2021/04/11 00:40:20;;;;;;;26.73;24.87;;;;;;;;;;5074410;28;20461;-73
2021/04/11 00:42:48;;;;;;;28.50;26.37;;;;;;;;;;5074044;28;20559;-73
2021/04/11 00:45:19;;;;;;;31.67;29.13;;;;;;;;;;5074239;28;20494;-73
2021/04/11 00:47:46;;;;;;;30.00;27.87;;;;;;;;;;5073985;28;20437;-73
2021/04/11 00:50:15;;;;;;;29.97;27.70;;;;;;;;;;5074132;28;20412;-72
2021/04/11 00:52:43;;;;;;;28.70;26.60;;;;;;;;;;5073918;28;20915;-73
2021/04/11 00:55:10;;;;;;;31.27;28.50;;;;;;;;;;5073698;28;20489;-73
2021/04/11 00:57:38;;;;;;;29.80;27.60;;;;;;;;;;5073886;28;20484;-73
2021/04/11 01:00:06;;;;;;;30.03;27.73;;;;;;;;;;5074120;28;20412;-73
2021/04/11 01:02:33;;;;;;;27.83;25.80;;;;;;;;;;5073782;28;20445;-73
2021/04/11 01:05:00;;;;;;;26.57;24.77;;;;;;;;;;5073693;28;20881;-73
2021/04/11 01:07:27;;;;;;;29.13;26.83;;;;;;;;;;5073927;28;20458;-73
2021/04/11 01:09:54;;;;;;;29.00;26.90;;;;;;;;;;5074046;28;20435;-73
2021/04/11 01:12:22;;;;;;;26.70;24.80;;;;;;;;;;5073918;28;20430;-73
2021/04/11 01:14:51;;;;;;;28.30;26.30;;;;;;;;;;5073820;28;20449;-73
2021/04/11 01:17:19;;;;;;;27.50;25.30;;;;;;;;;;5073538;28;20477;-73
2021/04/11 01:19:46;;;;;;;27.53;25.53;;;;;;;;;;5073470;28;20835;-73
2021/04/11 01:22:18;;;;;;;24.63;23.13;;;;;;;;;;5073788;28;20473;-73
2021/04/11 01:24:47;;;;;;;25.27;23.40;;;;;;;;;;5073800;28;20461;-72
2021/04/11 01:27:16;;;;;;;26.23;24.43;;;;;;;;;;5073382;28;20419;-74
2021/04/11 01:29:43;;;;;;;25.70;23.90;;;;;;;;;;5073389;28;20444;-73
2021/04/11 01:32:11;;;;;;;26.00;24.10;;;;;;;;;;5073734;28;20437;-73
2021/04/11 01:34:38;;;;;;;25.67;23.83;;;;;;;;;;5073692;28;20770;-73
2021/04/11 01:37:06;;;;;;;27.93;25.97;;;;;;;;;;5073597;28;20481;-73
2021/04/11 01:39:36;;;;;;;26.23;24.33;;;;;;;;;;5072832;28;20473;-73
2021/04/11 01:42:05;;;;;;;28.10;26.10;;;;;;;;;;5073288;28;20412;-73
2021/04/11 01:44:32;;;;;;;27.37;25.33;;;;;;;;;;5076228;28;20407;-73
2021/04/11 01:47:00;;;;;;;28.30;26.30;;;;;;;;;;5077704;28;20486;-73
2021/04/11 01:49:27;;;;;;;26.07;24.37;;;;;;;;;;5077517;28;20396;-73
2021/04/11 01:51:57;;;;;;;26.67;24.77;;;;;;;;;;5076224;28;20913;-74
2021/04/11 01:54:25;;;;;;;26.77;24.57;;;;;;;;;;5077324;28;20515;-73
2021/04/11 01:56:52;;;;;;;26.77;24.87;;;;;;;;;;5077452;28;20477;-73
2021/04/11 01:59:21;;;;;;;24.50;22.80;;;;;;;;;;5077226;28;20420;-73
2021/04/11 02:01:49;;;;;;;26.40;24.47;;;;;;;;;;5077519;28;20512;-73
2021/04/11 02:04:16;;;;;;;25.23;23.33;;;;;;;;;;5077345;28;20777;-73
2021/04/11 02:06:45;;;;;;;24.90;23.17;;;;;;;;;;5077390;28;20893;-73
2021/04/11 02:09:12;;;;;;;24.80;23.03;;;;;;;;;;5077038;28;20416;-73
2021/04/11 02:11:40;;;;;;;24.40;22.70;;;;;;;;;;5077256;28;20415;-74
2021/04/11 02:14:07;;;;;;;26.10;24.20;;;;;;;;;;5077141;28;20415;-73
2021/04/11 02:16:35;;;;;;;24.63;22.93;;;;;;;;;;5076769;28;21042;-73
2021/04/11 02:19:02;;;;;;;24.87;22.87;;;;;;;;;;5077122;28;20404;-72
2021/04/11 02:21:29;;;;;;;23.83;22.33;;;;;;;;;;5077000;28;20469;-74
2021/04/11 02:23:56;;;;;;;24.07;22.33;;;;;;;;;;5077024;28;20408;-73
2021/04/11 02:26:24;;;;;;;24.37;22.70;;;;;;;;;;5076516;28;20440;-73
2021/04/11 02:28:51;;;;;;;25.37;23.37;;;;;;;;;;5076939;28;20885;-73
2021/04/11 02:31:19;;;;;;;25.10;23.40;;;;;;;;;;5076910;28;20427;-73
2021/04/11 02:34:02;;;;;;;25.80;23.90;;;;;;;;;;5076455;28;20423;-73
2021/04/11 02:36:30;;;;;;;24.20;22.40;;;;;;;;;;5076449;28;20487;-73
2021/04/11 02:38:58;;;;;;;24.03;22.33;;;;;;;;;;5076170;28;20473;-73
2021/04/11 02:41:27;;;;;;;25.83;24.03;;;;;;;;;;5075546;28;20456;-73
2021/04/11 02:43:54;;;;;;;23.73;22.03;;;;;;;;;;5076364;28;20460;-73
2021/04/11 02:46:22;;;;;;;24.17;22.63;;;;;;;;;;5076656;28;20408;-73
2021/04/11 02:48:53;;;;;;;24.73;23.10;;;;;;;;;;5076267;28;20413;-73
2021/04/11 02:51:21;;;;;;;24.50;22.60;;;;;;;;;;5076235;28;20460;-73
2021/04/11 02:53:48;;;;;;;24.33;22.83;;;;;;;;;;5076205;28;20809;-74
2021/04/11 02:56:16;;;;;;;24.83;22.83;;;;;;;;;;5075985;28;20455;-73
2021/04/11 02:58:43;;;;;;;24.50;22.70;;;;;;;;;;5075830;28;20480;-74
2021/04/11 03:01:13;;;;;;;23.30;21.80;;;;;;;;;;5076337;28;20410;-74
2021/04/11 03:03:40;;;;;;;23.87;22.37;;;;;;;;;;5076029;28;20441;-73
2021/04/11 03:06:10;;;;;;;23.67;21.97;;;;;;;;;;5075965;28;20474;-73
2021/04/11 03:08:38;;;;;;;25.13;23.43;;;;;;;;;;5076227;28;20407;-73
2021/04/11 03:11:11;;;;;;;24.67;22.87;;;;;;;;;;5075890;28;20427;-73
2021/04/11 03:13:39;;;;;;;24.43;22.73;;;;;;;;;;5076124;28;20420;-74
2021/04/11 03:16:06;;;;;;;24.13;22.53;;;;;;;;;;5075994;28;20488;-73
2021/04/11 03:18:33;;;;;;;23.50;22.10;;;;;;;;;;5075792;28;20419;-73
2021/04/11 03:21:00;;;;;;;24.03;22.53;;;;;;;;;;5076543;28;20441;-74
2021/04/11 03:23:27;;;;;;;24.40;22.63;;;;;;;;;;5075563;28;20483;-74
2021/04/11 03:25:58;;;;;;;24.60;22.93;;;;;;;;;;5075526;28;20433;-73
2021/04/11 03:28:27;;;;;;;22.40;21.00;;;;;;;;;;5076123;28;20798;-73
2021/04/11 03:31:00;;;;;;;23.37;21.87;;;;;;;;;;5075500;28;20425;-74
2021/04/11 03:33:27;;;;;;;24.60;22.97;;;;;;;;;;5074689;28;20474;-73
2021/04/11 03:35:54;;;;;;;23.63;22.03;;;;;;;;;;5075662;28;20451;-73
2021/04/11 03:38:23;;;;;;;23.87;22.33;;;;;;;;;;5075430;28;20419;-73
2021/04/11 03:40:51;;;;;;;22.40;21.10;;;;;;;;;;5075595;28;20413;-73
2021/04/11 03:43:21;;;;;;;24.07;22.57;;;;;;;;;;5075285;28;20413;-74
2021/04/11 03:45:48;;;;;;;24.03;22.57;;;;;;;;;;5075134;28;20438;-74
2021/04/11 03:48:19;;;;;;;23.97;22.47;;;;;;;;;;5075224;28;20408;-74
2021/04/11 03:50:48;;;;;;;22.97;21.47;;;;;;;;;;5075089;28;20412;-73
2021/04/11 03:53:18;;;;;;;23.43;21.87;;;;;;;;;;5075305;28;20427;-74
2021/04/11 03:55:47;;;;;;;24.40;22.40;;;;;;;;;;5074740;28;21021;-74
2021/04/11 03:58:19;;;;;;;22.60;21.20;;;;;;;;;;5073630;28;20431;-73
2021/04/11 04:00:48;;;;;;;23.13;21.53;;;;;;;;;;5074896;28;20791;-73
2021/04/11 04:03:23;;;;;;;23.77;22.23;;;;;;;;;;5075135;28;20759;-73
2021/04/11 04:05:50;;;;;;;22.40;20.97;;;;;;;;;;5074663;28;20422;-73
2021/04/11 04:08:17;;;;;;;23.40;21.80;;;;;;;;;;5074825;28;20449;-73
2021/04/11 04:10:51;;;;;;;22.90;21.50;;;;;;;;;;5074364;28;20420;-73
2021/04/11 04:13:27;;;;;;;23.33;21.53;;;;;;;;;;5074648;28;20416;-74
2021/04/11 04:16:04;;;;;;;22.40;21.00;;;;;;;;;;5074402;28;20436;-74
2021/04/11 04:18:49;;;;;;;22.23;20.83;;;;;;;;;;5074649;28;20456;-73
2021/04/11 04:21:21;;;;;;;21.83;20.17;;;;;;;;;;5074568;28;20431;-73
2021/04/11 04:23:52;;;;;;;21.90;20.63;;;;;;;;;;5074643;28;20420;-73
2021/04/11 04:26:35;;;;;;;22.27;20.83;;;;;;;;;;5074569;28;20445;-73
2021/04/11 04:29:06;;;;;;;21.67;20.20;;;;;;;;;;5074578;28;20898;-73
2021/04/11 04:31:42;;;;;;;22.13;20.63;;;;;;;;;;5074338;28;20441;-74
2021/04/11 04:34:16;;;;;;;21.83;20.50;;;;;;;;;;5074402;28;20419;-73
2021/04/11 04:36:46;;;;;;;21.10;19.70;;;;;;;;;;5074276;28;20463;-73
2021/04/11 04:39:18;;;;;;;21.57;20.17;;;;;;;;;;5074499;28;20734;-73
2021/04/11 04:41:48;;;;;;;22.40;20.63;;;;;;;;;;5074037;28;20420;-74
2021/04/11 04:44:22;;;;;;;21.13;19.63;;;;;;;;;;5074003;28;20422;-74
2021/04/11 04:46:54;;;;;;;21.45;20.15;;;;;;;;;;5073576;28;20455;-73
2021/04/11 04:49:24;;;;;;;21.60;20.20;;;;;;;;;;5073971;28;20187;-73
2021/04/11 04:51:54;;;;;;;21.80;20.20;;;;;;;;;;5074183;28;20448;-73
2021/04/11 04:54:26;;;;;;;21.63;20.33;;;;;;;;;;5073412;28;20451;-74
2021/04/11 04:56:56;;;;;;;22.33;20.93;;;;;;;;;;5073935;28;20486;-73
2021/04/11 04:59:24;;;;;;;21.83;20.57;;;;;;;;;;5072850;28;20428;-73
2021/04/11 05:01:55;;;;;;;21.40;20.10;;;;;;;;;;5074003;28;20826;-73
2021/04/11 05:04:24;;;;;;;20.90;19.60;;;;;;;;;;5073649;28;20419;-73
2021/04/11 05:06:54;;;;;;;22.97;21.47;;;;;;;;;;5074082;28;20412;-73
2021/04/11 05:09:23;;;;;;;21.77;20.37;;;;;;;;;;5073949;28;20426;-73
2021/04/11 05:11:54;;;;;;;20.70;19.40;;;;;;;;;;5073693;28;20449;-74
2021/04/11 05:14:23;;;;;;;20.30;19.20;;;;;;;;;;5073553;28;20506;-73
2021/04/11 05:16:55;;;;;;;21.43;20.10;;;;;;;;;;5073767;28;20553;-73
2021/04/11 05:19:23;;;;;;;21.27;20.07;;;;;;;;;;5073620;28;20425;-74
2021/04/11 05:21:52;;;;;;;21.47;20.27;;;;;;;;;;5073749;28;20446;-73
2021/04/11 05:24:22;;;;;;;21.57;20.03;;;;;;;;;;5073775;28;20408;-74
2021/04/11 05:26:51;;;;;;;21.07;19.77;;;;;;;;;;5073679;28;20420;-72
2021/04/11 05:29:22;;;;;;;23.20;21.80;;;;;;;;;;5073455;28;20437;-73
2021/04/11 05:31:51;;;;;;;25.27;23.87;;;;;;;;;;5073737;28;20415;-73
2021/04/11 05:34:20;;;;;;;26.03;24.50;;;;;;;;;;5073396;28;20423;-73
2021/04/11 05:36:49;;;;;;;26.20;24.80;;;;;;;;;;5073318;28;20467;-74
2021/04/11 05:39:22;;;;;;;21.63;20.40;;;;;;;;;;5073697;28;20424;-74
2021/04/11 05:41:52;;;;;;;20.97;19.57;;;;;;;;;;5073649;28;20897;-73
2021/04/11 05:44:23;;;;;;;23.10;21.67;;;;;;;;;;5073558;28;20422;-74
2021/04/11 05:46:54;;;;;;;23.43;21.93;;;;;;;;;;5073630;28;20456;-73
2021/04/11 05:49:27;;;;;;;23.50;21.93;;;;;;;;;;5073373;28;20436;-73
2021/04/11 05:51:56;;;;;;;24.80;23.10;;;;;;;;;;5073561;28;20790;-72
2021/04/11 05:54:25;;;;;;;24.97;23.40;;;;;;;;;;5073212;28;20458;-71
2021/04/11 05:56:54;;;;;;;24.53;22.90;;;;;;;;;;5073257;28;20527;-71
2021/04/11 05:59:23;;;;;;;25.70;24.03;;;;;;;;;;5073187;28;20420;-71
2021/04/11 06:01:52;;;;;;;24.87;23.23;;;;;;;;;;5073470;28;20434;-72
2021/04/11 06:04:21;;;;;;;25.47;23.73;;;;;;;;;;5073083;28;20444;-72
2021/04/11 06:06:51;;;;;;;26.53;24.77;;;;;;;;;;5073414;28;20424;-72
2021/04/11 06:09:23;;;;;;;25.77;24.03;;;;;;;;;;5073380;28;20430;-72
2021/04/11 06:11:51;;;;;;;24.97;23.37;;;;;;;;;;5073087;28;20915;-76
2021/04/11 06:14:20;;;;;;;25.73;24.13;;;;;;;;;;5073306;28;20411;-72
2021/04/11 06:16:47;;;;;;;26.00;24.20;;;;;;;;;;5072048;28;20459;-71
2021/04/11 06:19:14;;;;;;;25.90;24.17;;;;;;;;;;5073311;28;20462;-72
2021/04/11 06:21:48;;;;;;;23.53;22.10;;;;;;;;;;5073190;28;20466;-72
2021/04/11 06:24:24;;;;;;;24.80;23.20;;;;;;;;;;5072883;28;20416;-71
2021/04/11 06:26:55;;;;;;;25.47;23.63;;;;;;;;;;5073071;28;20429;-72
2021/04/11 06:29:23;;;;;;;24.03;22.43;;;;;;;;;;5073696;28;20445;-72
2021/04/11 06:31:56;;;;;;;26.40;24.63;;;;;;;;;;5076760;28;20774;-72
2021/04/11 06:34:24;;;;;;;23.63;22.13;;;;;;;;;;5076536;28;20965;-71
2021/04/11 06:36:53;;;;;;;24.60;23.00;;;;;;;;;;5076130;28;20475;-73
2021/04/11 06:39:22;;;;;;;23.47;22.07;;;;;;;;;;5076498;28;20441;-71
2021/04/11 06:42:04;;;;;;;24.60;23.10;;;;;;;;;;5076666;28;20433;-71
2021/04/11 06:44:49;;;;;;;25.60;24.00;;;;;;;;;;5076469;28;20427;-71
2021/04/11 06:47:31;;;;;;;26.53;24.77;;;;;;;;;;5076449;28;20432;-71
2021/04/11 06:50:16;;;;;;;24.90;23.30;;;;;;;;;;5043582;28;20439;-72
2021/04/11 06:52:59;;;;;;;25.33;23.73;;;;;;;;;;5076000;28;20831;-72
2021/04/11 06:55:37;;;;;;;24.40;22.80;;;;;;;;;;5076068;28;20839;-71
2021/04/11 06:58:10;;;;;;;21.70;20.50;;;;;;;;;;5076287;28;20550;-71
2021/04/11 07:00:58;;;;;;;21.87;20.67;;;;;;;;;;5076014;28;20433;-71
2021/04/11 07:03:57;;;;;;;21.80;20.50;;;;;;;;;;5071051;28;20831;-71
2021/04/11 07:06:51;;;;;;;22.77;21.47;;;;;;;;;;5075949;28;20869;-71
2021/04/11 07:09:36;;;;;;;25.33;23.77;;;;;;;;;;5014053;28;20462;-71
2021/04/11 07:12:19;;;;;;;21.63;20.43;;;;;;;;;;5014131;28;20431;-71
2021/04/11 07:14:56;;;;;;;23.40;22.00;;;;;;;;;;5014046;28;20421;-71
2021/04/11 07:17:32;;;;;;;20.60;19.40;;;;;;;;;;4997646;28;20488;-71
2021/04/11 07:20:19;;;;;;;21.07;19.77;;;;;;;;;;5014192;28;20448;-71
2021/04/11 07:23:08;;;;;;;23.60;22.20;;;;;;;;;;5013919;28;20471;-71
2021/04/11 07:25:44;;;;;;;22.97;21.57;;;;;;;;;;5013871;28;20945;-71
2021/04/11 07:28:21;;;;;;;21.17;19.93;;;;;;;;;;5013644;28;20440;-71
2021/04/11 07:30:49;;;;;;;22.10;20.90;;;;;;;;;;5013839;28;20551;-71
2021/04/11 07:33:31;;;;;;;23.23;21.83;;;;;;;;;;5014277;28;20457;-71
2021/04/11 07:36:12;;;;;;;23.77;22.37;;;;;;;;;;5012034;28;20459;-70
2021/04/11 07:38:51;;;;;;;21.87;20.60;;;;;;;;;;5023969;28;20413;-71
2021/04/11 07:41:26;;;;;;;20.87;19.70;;;;;;;;;;5022643;28;20779;-70
2021/04/11 07:44:01;;;;;;;24.17;22.83;;;;;;;;;;5002526;28;20430;-71
2021/04/11 07:46:43;;;;;;;22.57;21.27;;;;;;;;;;5075473;28;20468;-71
2021/04/11 07:49:25;;;;;;;22.07;20.87;;;;;;;;;;5075219;28;20427;-71
2021/04/11 07:51:56;;;;;;;21.33;20.13;;;;;;;;;;5075402;28;20430;-71
2021/04/11 07:54:35;;;;;;;21.17;20.07;;;;;;;;;;5074980;28;20488;-71
2021/04/11 07:57:12;;;;;;;21.50;20.30;;;;;;;;;;5075461;28;20487;-71
2021/04/11 07:59:53;;;;;;;20.00;18.90;;;;;;;;;;5074886;28;20495;-71
2021/04/11 08:02:23;;;;;;;21.03;19.93;;;;;;;;;;5074870;28;20418;-71
2021/04/11 08:05:03;;;;;;;21.00;19.80;;;;;;;;;;5075091;28;20428;-71
2021/04/11 08:07:36;;;;;;;22.30;21.10;;;;;;;;;;5075086;28;20486;-70
2021/04/11 08:10:13;;;;;;;22.13;20.87;;;;;;;;;;5074774;28;20419;-71
2021/04/11 08:12:57;;;;;;;21.27;20.15;;;;;;;;;;5074627;28;20411;-71
2021/04/11 08:15:29;;;;;;;20.50;19.50;;;;;;;;;;5074878;28;20201;-71
2021/04/11 08:18:02;;;;;;;21.38;20.02;;;;;;;;;;5074397;28;20489;-71
2021/04/11 08:20:46;;;;;;;21.50;20.30;;;;;;;;;;5074762;28;20184;-71
2021/04/11 08:23:36;;;;;;;21.00;19.90;;;;;;;;;;5074367;28;20409;-71
2021/04/11 08:26:12;;;;;;;21.15;20.05;;;;;;;;;;5055006;28;20507;-71
2021/04/11 08:29:09;;;;;;;22.63;21.33;;;;;;;;;;5074426;28;20194;-71
2021/04/11 08:31:50;;;;;;;23.05;21.70;;;;;;;;;;4996445;28;20514;-72
2021/04/11 08:34:29;;;;;;;21.33;20.13;;;;;;;;;;5041796;28;20206;-71
2021/04/11 08:37:14;;;;;;;22.60;21.30;;;;;;;;;;5016398;28;20482;-72
2021/04/11 08:39:46;;;;;;;23.90;22.40;;;;;;;;;;5031978;28;20477;-71
2021/04/11 08:42:31;;;;;;;22.92;21.63;;;;;;;;;;5040328;28;20439;-71
2021/04/11 08:45:07;;;;;;;23.80;22.40;;;;;;;;;;5037048;28;20201;-71
2021/04/11 08:47:39;;;;;;;25.23;23.63;;;;;;;;;;5043009;28;20413;-71
2021/04/11 08:50:09;;;;;;;24.90;23.30;;;;;;;;;;5026544;28;20787;-71
2021/04/11 08:52:41;;;;;;;24.65;23.15;;;;;;;;;;5011801;28;20419;-71
2021/04/11 08:55:11;;;;;;;26.77;24.97;;;;;;;;;;5012007;28;20710;-71
2021/04/11 08:57:40;;;;;;;25.90;24.20;;;;;;;;;;5010749;28;20470;-71
2021/04/11 09:00:10;;;;;;;25.83;24.20;;;;;;;;;;5012092;28;20230;-71
2021/04/11 09:02:49;;;;;;;24.60;22.90;;;;;;;;;;5012016;28;20422;-71
2021/04/11 09:05:23;;;;;;;26.33;24.43;;;;;;;;;;5032385;28;20468;-71
2021/04/11 09:07:53;;;;;;;25.07;23.33;;;;;;;;;;5073591;28;20467;-71
2021/04/11 09:10:24;;;;;;;25.80;24.17;;;;;;;;;;5073661;28;20452;-71
2021/04/11 09:12:56;;;;;;;26.15;24.42;;;;;;;;;;5073909;28;20457;-71
2021/04/11 09:15:26;;;;;;;26.60;24.87;;;;;;;;;;5073883;28;20190;-71
2021/04/11 09:18:06;;;;;;;26.55;24.85;;;;;;;;;;5073791;28;20489;-71
2021/04/11 09:20:36;;;;;;;25.00;23.30;;;;;;;;;;5073700;28;20250;-72
2021/04/11 09:23:11;;;;;;;26.20;24.40;;;;;;;;;;5073878;28;20191;-71
2021/04/11 09:25:38;;;;;;;27.25;25.33;;;;;;;;;;5073798;28;20408;-71
2021/04/11 09:28:29;;;;;;;26.23;24.57;;;;;;;;;;5073569;28;20199;-72
2021/04/11 09:31:06;;;;;;;25.77;23.97;;;;;;;;;;5058735;28;20438;-76
2021/04/11 09:33:46;;;;;;;26.20;24.30;;;;;;;;;;5073473;28;20445;-71
2021/04/11 09:36:21;;;;;;;26.90;24.90;;;;;;;;;;5072187;28;20430;-71
2021/04/11 09:39:11;;;;;;;25.77;24.07;;;;;;;;;;5073656;28;20542;-71
2021/04/11 09:41:59;;;;;;;27.02;25.30;;;;;;;;;;5011295;28;20438;-71
2021/04/11 09:44:33;;;;;;;27.13;25.37;;;;;;;;;;5011489;28;20203;-71
2021/04/11 09:47:21;;;;;;;25.67;23.97;;;;;;;;;;5011639;28;20459;-71
2021/04/11 09:49:55;;;;;;;25.27;23.67;;;;;;;;;;5011469;28;20486;-71
2021/04/11 09:52:49;;;;;;;25.87;24.27;;;;;;;;;;5011622;28;20476;-71
2021/04/11 09:55:20;;;;;;;26.60;24.70;;;;;;;;;;4952876;29;20471;-75
2021/04/11 09:58:02;;;;;;;25.40;23.70;;;;;;;;;;4953036;29;20474;-72
2021/04/11 10:00:32;;;;;;;26.20;24.43;;;;;;;;;;4913096;29;20463;-72
2021/04/11 10:03:09;;;;;;;24.05;22.50;;;;;;;;;;4953222;29;20454;-71
2021/04/11 10:05:45;;;;;;;26.20;24.10;;;;;;;;;;4939785;29;20202;-72
2021/04/11 10:08:24;;;;;;;24.33;22.73;;;;;;;;;;4956939;29;20895;-72
2021/04/11 10:11:07;;;;;;;22.53;21.03;;;;;;;;;;4956850;29;20649;-71
2021/04/11 10:13:54;;;;;;;24.65;23.05;;;;;;;;;;4956775;29;20420;-71
2021/04/11 10:16:23;;;;;;;23.27;21.87;;;;;;;;;;4951097;29;20211;-71
2021/04/11 10:19:07;;;;;;;24.30;22.70;;;;;;;;;;5003258;28;20423;-71
2021/04/11 10:21:41;;;;;;;25.25;23.65;;;;;;;;;;5014990;28;20456;-71
2021/04/11 10:24:31;;;;;;;25.52;23.83;;;;;;;;;;5015092;28;20242;-71
2021/04/11 10:27:01;;;;;;;24.53;22.83;;;;;;;;;;4995999;28;20211;-71
2021/04/11 10:29:28;;;;;;;25.13;23.23;;;;;;;;;;5014989;28;20427;-71
2021/04/11 10:31:58;;;;;;;24.30;22.53;;;;;;;;;;5071070;28;20202;-72
2021/04/11 10:34:30;;;;;;;23.77;22.17;;;;;;;;;;5076800;28;20768;-72
2021/04/11 10:37:05;;;;;;;23.80;22.30;;;;;;;;;;5076490;28;20219;-72
2021/04/11 10:39:38;;;;;;;23.02;21.60;;;;;;;;;;5076508;28;20569;-71
2021/04/11 10:42:11;;;;;;;23.65;22.15;;;;;;;;;;5076705;28;20241;-71
2021/04/11 10:44:42;;;;;;;22.33;20.98;;;;;;;;;;5076302;28;20193;-71
2021/04/11 10:47:24;;;;;;;23.08;21.73;;;;;;;;;;5076294;28;20205;-71
2021/04/11 10:49:55;;;;;;;24.63;23.00;;;;;;;;;;5076577;28;20217;-71
2021/04/11 10:52:33;;;;;;;23.90;22.40;;;;;;;;;;5076527;28;20549;-72
2021/04/11 10:55:17;;;;;;;24.13;22.33;;;;;;;;;;5076039;28;20235;-72
2021/04/11 10:57:59;;;;;;;23.58;22.00;;;;;;;;;;5076017;28;20229;-71
2021/04/11 11:00:29;;;;;;;23.98;22.40;;;;;;;;;;5074156;28;20267;-72
2021/04/11 11:03:14;;;;;;;24.55;23.05;;;;;;;;;;5076092;28;20227;-71
2021/04/11 11:05:56;;;;;;;23.63;22.10;;;;;;;;;;5076412;28;20190;-71
2021/04/11 11:08:40;;;;;;;23.75;22.23;;;;;;;;;;5073683;28;20460;-71
2021/04/11 11:11:34;;;;;;;22.05;20.65;;;;;;;;;;5075901;28;20245;-71
2021/04/11 11:14:09;;;;;;;21.08;19.88;;;;;;;;;;5014085;28;20210;-71
2021/04/11 11:16:45;;;;;;;21.73;20.52;;;;;;;;;;5013455;28;20219;-71
2021/04/11 11:19:18;;;;;;;23.92;22.42;;;;;;;;;;5014085;28;20195;-71
2021/04/11 11:22:17;;;;;;;25.50;23.60;;;;;;;;;;5013881;28;20224;-71
2021/04/11 11:25:01;;;;;;;35.15;31.75;;;;;;;;;;4955475;29;20237;-71
2021/04/11 11:27:40;;;;;;;53.80;48.15;;;;;;;;;;4955530;29;20215;-71
2021/04/11 11:30:14;;;;;;;22.33;20.92;;;;;;;;;;4955612;29;20199;-71
2021/04/11 11:32:47;;;;;;;22.02;20.73;;;;;;;;;;4955422;29;20206;-71
2021/04/11 11:35:15;;;;;;;22.35;20.98;;;;;;;;;;4955393;29;20564;-72
2021/04/11 11:37:51;;;;;;;20.90;19.67;;;;;;;;;;4955455;29;20225;-72
2021/04/11 11:40:23;;;;;;;25.55;23.63;;;;;;;;;;4955361;29;20233;-72
2021/04/11 11:42:56;;;;;;;21.10;19.85;;;;;;;;;;4955247;29;20213;-71
2021/04/11 11:45:27;;;;;;;22.95;21.55;;;;;;;;;;4955738;29;20219;-72
2021/04/11 11:47:58;;;;;;;20.67;19.48;;;;;;;;;;4955094;29;20202;-71
2021/04/11 11:50:28;;;;;;;22.88;21.52;;;;;;;;;;5018204;28;20243;-72
2021/04/11 11:52:58;;;;;;;21.55;19.88;;;;;;;;;;5033134;28;20199;-71
2021/04/11 11:55:28;;;;;;;28.17;26.10;;;;;;;;;;5051180;28;20229;-72
2021/04/11 11:57:58;;;;;;;21.25;19.95;;;;;;;;;;5074823;28;21007;-71
2021/04/11 12:00:27;;;;;;;24.13;22.42;;;;;;;;;;5075363;28;20194;-71
2021/04/11 12:03:07;;;;;;;20.17;19.02;;;;;;;;;;5074958;28;20199;-71
2021/04/11 12:05:38;;;;;;;21.15;19.95;;;;;;;;;;5074989;28;20281;-71
2021/04/11 12:08:08;;;;;;;20.52;19.23;;;;;;;;;;5075140;28;20201;-71
2021/04/11 12:10:37;;;;;;;21.10;19.80;;;;;;;;;;5075054;28;20188;-72
2021/04/11 12:13:10;;;;;;;22.27;20.88;;;;;;;;;;5075281;28;20194;-72
2021/04/11 12:15:40;;;;;;;21.73;20.42;;;;;;;;;;5074686;28;20199;-71
2021/04/11 12:18:09;;;;;;;20.67;19.48;;;;;;;;;;5074847;28;20676;-72
2021/04/11 12:20:39;;;;;;;22.33;20.58;;;;;;;;;;5074506;28;20218;-71
2021/04/11 12:23:09;;;;;;;23.13;21.42;;;;;;;;;;5074570;28;20186;-73
2021/04/11 12:25:38;;;;;;;23.08;21.77;;;;;;;;;;5074826;28;20194;-77
2021/04/11 12:28:14;;;;;;;24.23;22.73;;;;;;;;;;5072120;28;20187;-75
2021/04/11 12:30:43;;;;;;;23.50;21.90;;;;;;;;;;5073160;28;20621;-76
2021/04/11 12:33:23;;;;;;;24.25;22.85;;;;;;;;;;5074355;28;20213;-74
2021/04/11 12:36:01;;;;;;;25.88;24.35;;;;;;;;;;5074618;28;20208;-71
2021/04/11 12:38:33;;;;;;;25.70;24.20;;;;;;;;;;5074543;28;20242;-71
2021/04/11 12:41:03;;;;;;;27.48;25.42;;;;;;;;;;5074190;28;20201;-70
2021/04/11 12:43:36;;;;;;;25.98;24.17;;;;;;;;;;5074207;28;20281;-70
2021/04/11 12:46:06;;;;;;;28.63;26.77;;;;;;;;;;5074341;28;20192;-70
2021/04/11 12:48:35;;;;;;;27.75;26.15;;;;;;;;;;5074442;28;20198;-71
2021/04/11 12:51:07;;;;;;;26.85;25.20;;;;;;;;;;5074271;28;20546;-71
2021/04/11 12:53:47;;;;;;;31.23;29.50;;;;;;;;;;5074043;28;20232;-71
2021/04/11 12:56:17;;;;;;;33.08;30.98;;;;;;;;;;5073786;28;20620;-71
2021/04/11 12:58:46;;;;;;;32.72;30.73;;;;;;;;;;5074111;28;20216;-71
2021/04/11 13:01:17;;;;;;;33.05;31.08;;;;;;;;;;5074184;28;20289;-70
2021/04/11 13:03:47;;;;;;;31.58;29.77;;;;;;;;;;5073775;28;20635;-70
2021/04/11 13:06:20;;;;;;;30.88;28.80;;;;;;;;;;5073728;28;20234;-71
2021/04/11 13:08:59;;;;;;;30.15;28.05;;;;;;;;;;5074032;28;20277;-71
2021/04/11 13:11:31;;;;;;;31.25;29.45;;;;;;;;;;5074402;28;20210;-71
2021/04/11 13:13:59;;;;;;;33.20;30.85;;;;;;;;;;5072779;28;20193;-71
2021/04/11 13:16:29;;;;;;;30.85;29.05;;;;;;;;;;5073968;28;20196;-70
2021/04/11 13:18:57;;;;;;;30.80;28.88;;;;;;;;;;5073806;28;20195;-70
2021/04/11 13:21:27;;;;;;;30.75;28.95;;;;;;;;;;5073460;28;20353;-70
2021/04/11 13:23:56;;;;;;;31.55;29.55;;;;;;;;;;5073516;28;20667;-70
2021/04/11 13:26:26;;;;;;;32.35;30.42;;;;;;;;;;5074271;28;20185;-71
2021/04/11 13:29:02;;;;;;;30.95;29.13;;;;;;;;;;5074022;28;20590;-71
2021/04/11 13:31:42;;;;;;;32.55;30.65;;;;;;;;;;5074092;28;20196;-71
2021/04/11 13:34:13;;;;;;;31.90;30.10;;;;;;;;;;5073469;28;20667;-71
2021/04/11 13:36:47;;;;;;;31.75;29.77;;;;;;;;;;5073597;28;20189;-70
2021/04/11 13:39:15;;;;;;;32.53;30.42;;;;;;;;;;5072790;28;20190;-70
2021/04/11 13:42:00;;;;;;;34.25;32.15;;;;;;;;;;5073569;28;20197;-70
2021/04/11 13:44:33;;;;;;;32.78;30.70;;;;;;;;;;5073242;28;20213;-70
2021/04/11 13:47:06;;;;;;;33.40;31.30;;;;;;;;;;5073371;28;20248;-70
2021/04/11 13:49:41;;;;;;;32.67;30.42;;;;;;;;;;5073552;28;20190;-70
2021/04/11 13:52:11;;;;;;;32.70;30.70;;;;;;;;;;5073565;28;20281;-71
2021/04/11 13:54:42;;;;;;;33.65;31.60;;;;;;;;;;5073227;28;20702;-72
2021/04/11 13:57:18;;;;;;;31.55;29.55;;;;;;;;;;5072882;28;20218;-72
2021/04/11 13:59:48;;;;;;;33.45;31.35;;;;;;;;;;5072298;28;20201;-72
2021/04/11 14:02:22;;;;;;;33.22;30.98;;;;;;;;;;5073570;28;20680;-71
2021/04/11 14:04:54;;;;;;;32.47;30.52;;;;;;;;;;5073107;28;20198;-70
2021/04/11 14:07:24;;;;;;;32.45;30.55;;;;;;;;;;5071851;28;20202;-71
2021/04/11 14:09:55;;;;;;;33.53;31.33;;;;;;;;;;5072989;28;20202;-71
2021/04/11 14:12:24;;;;;;;32.70;30.58;;;;;;;;;;5073611;28;20194;-71
2021/04/11 14:14:57;;;;;;;31.75;29.75;;;;;;;;;;5073327;28;20196;-71
2021/04/11 14:17:28;;;;;;;32.95;30.20;;;;;;;;;;5072976;28;20214;-71
2021/04/11 14:20:01;;;;;;;33.35;31.15;;;;;;;;;;5073487;28;20190;-71
2021/04/11 14:22:30;;;;;;;31.88;29.98;;;;;;;;;;5073252;28;20285;-70
2021/04/11 14:25:00;;;;;;;30.85;29.05;;;;;;;;;;5073192;28;20193;-72
2021/04/11 14:27:31;;;;;;;31.00;29.30;;;;;;;;;;5072858;28;20194;-71
2021/04/11 14:30:03;;;;;;;31.75;29.73;;;;;;;;;;5073403;28;20191;-71
2021/04/11 14:32:33;;;;;;;31.05;29.15;;;;;;;;;;5073009;28;20196;-71
2021/04/11 14:35:06;;;;;;;32.47;29.83;;;;;;;;;;5072891;28;20189;-71
2021/04/11 14:37:34;;;;;;;31.88;29.67;;;;;;;;;;5073191;28;20565;-71
2021/04/11 14:40:04;;;;;;;31.40;29.38;;;;;;;;;;5073256;28;20212;-71
2021/04/11 14:42:33;;;;;;;31.60;29.35;;;;;;;;;;5072925;28;20187;-70
2021/04/11 14:45:07;;;;;;;40.42;37.33;;;;;;;;;;5072717;28;20194;-71
2021/04/11 14:47:41;;;;;;;31.23;29.33;;;;;;;;;;5073401;28;20194;-71